Etusivu
METAR-TAF:

METAR-TAF

Lentoasemat :

Guilin, Kiina

Leveyspiiri: 25-20N, Pituuspiiri: 110-18E, korkeus merenpinnasta: 166 m

Tämänhetkinen sää

Tämä raportti tehtiin 35 minuuttia sitten, kello 01.00 UTC
Tuuli 8 kn etelästä
Lämpötila 22°C
Kosteus 69%
Ilmanpaine 1016 hPa
Näkyvyys 10 km tai enemmän
Hajonneita pilviä 4300 ft:n korkeudessa

METAR: ZGKL 180100Z 17004MPS 9999 BKN043 22/16 Q1016 NOSIG

Aika: 09:35 (01:35 UTC)

Sääennuste

Tämä raportti tehtiin 6 tuntia ja 20 minuuttia sitten, kello 19.15 UTC
Ennuste voimassa 18. päivästä klo 00 UTC - 18. päivään klo 24 UTC
Tuuli 10 kn etelästä
Näkyvyys: 6000 m
Hajonneita pilviä 5000 ft:n korkeudessa

TAF: ZGKL 171915Z 1800/1824 18005MPS 6000 BKN050 TX22/1807Z TN13/1822Z

Säähavainnot ja -ennusteet yli 4000 lentoasemalta (METAR- ja TAF-raportit).

Käytössä olevat sääasemat on merkitty karttaan keltaisilla ja punaisilla pisteillä.

Aseta hiiri pisteen päälle nähdäksesi sääaseman nimen.

Klikkaa sitten nähdäksesi säähavainnot ja -ennusteet.

Kartan vaihtaminen: klikkaa mustalla rastilla varustettuja vihreitä pisteitä, niin voit zoomata sisään; viivalla varustettua vihreää pistettä, niin voit zoomata ulos tai vihreitä nuolia, niin pääset viereisille kartoille.


METAR-TAF: